sensor_id;sensor_type;location;lat;lon;timestamp;P1;durP1;ratioP1;P2;durP2;ratioP2
18818;SDS011;9537;45.594;9.294;2023-02-15T00:00:43;58.70;;;28.60;;
18818;SDS011;9537;45.594;9.294;2023-02-15T00:01:46;62.03;;;30.53;;
18818;SDS011;9537;45.594;9.294;2023-02-15T00:02:50;60.90;;;30.93;;
18818;SDS011;9537;45.594;9.294;2023-02-15T00:03:50;68.13;;;31.50;;
18818;SDS011;9537;45.594;9.294;2023-02-15T00:04:52;61.37;;;30.23;;
18818;SDS011;9537;45.594;9.294;2023-02-15T00:05:56;61.60;;;30.13;;
18818;SDS011;9537;45.594;9.294;2023-02-15T00:06:58;60.83;;;31.27;;
18818;SDS011;9537;45.594;9.294;2023-02-15T00:07:59;63.17;;;30.20;;
18818;SDS011;9537;45.594;9.294;2023-02-15T00:09:01;64.33;;;30.23;;
18818;SDS011;9537;45.594;9.294;2023-02-15T00:10:03;67.90;;;29.63;;
18818;SDS011;9537;45.594;9.294;2023-02-15T00:11:06;60.87;;;30.17;;
18818;SDS011;9537;45.594;9.294;2023-02-15T00:12:08;72.90;;;29.40;;
18818;SDS011;9537;45.594;9.294;2023-02-15T00:13:10;62.33;;;30.07;;
18818;SDS011;9537;45.594;9.294;2023-02-15T00:14:12;58.60;;;29.97;;
18818;SDS011;9537;45.594;9.294;2023-02-15T00:15:16;68.63;;;30.07;;
18818;SDS011;9537;45.594;9.294;2023-02-15T00:16:17;62.93;;;30.20;;
18818;SDS011;9537;45.594;9.294;2023-02-15T00:17:20;70.70;;;32.63;;
18818;SDS011;9537;45.594;9.294;2023-02-15T00:18:21;62.47;;;30.07;;
18818;SDS011;9537;45.594;9.294;2023-02-15T00:19:23;66.37;;;28.93;;
18818;SDS011;9537;45.594;9.294;2023-02-15T00:20:24;60.70;;;30.77;;
18818;SDS011;9537;45.594;9.294;2023-02-15T00:21:26;57.03;;;29.63;;
18818;SDS011;9537;45.594;9.294;2023-02-15T00:22:28;55.63;;;30.03;;
18818;SDS011;9537;45.594;9.294;2023-02-15T00:23:30;60.20;;;30.80;;
18818;SDS011;9537;45.594;9.294;2023-02-15T00:24:32;60.47;;;30.00;;
18818;SDS011;9537;45.594;9.294;2023-02-15T00:25:34;65.23;;;31.70;;
18818;SDS011;9537;45.594;9.294;2023-02-15T00:26:35;66.23;;;31.57;;
18818;SDS011;9537;45.594;9.294;2023-02-15T00:27:39;62.10;;;30.53;;
18818;SDS011;9537;45.594;9.294;2023-02-15T00:28:40;59.17;;;30.00;;
18818;SDS011;9537;45.594;9.294;2023-02-15T00:29:42;64.27;;;31.13;;
18818;SDS011;9537;45.594;9.294;2023-02-15T00:30:43;63.90;;;31.20;;
18818;SDS011;9537;45.594;9.294;2023-02-15T00:31:45;63.20;;;30.80;;
18818;SDS011;9537;45.594;9.294;2023-02-15T00:32:48;63.63;;;31.10;;
18818;SDS011;9537;45.594;9.294;2023-02-15T00:33:50;70.30;;;32.73;;
18818;SDS011;9537;45.594;9.294;2023-02-15T00:34:51;66.73;;;31.83;;
18818;SDS011;9537;45.594;9.294;2023-02-15T00:35:55;60.90;;;29.83;;
18818;SDS011;9537;45.594;9.294;2023-02-15T00:36:57;62.87;;;30.33;;
18818;SDS011;9537;45.594;9.294;2023-02-15T00:37:59;63.23;;;31.07;;
18818;SDS011;9537;45.594;9.294;2023-02-15T00:39:00;66.07;;;33.13;;
18818;SDS011;9537;45.594;9.294;2023-02-15T00:40:02;65.33;;;33.03;;
18818;SDS011;9537;45.594;9.294;2023-02-15T00:41:04;66.27;;;31.47;;
18818;SDS011;9537;45.594;9.294;2023-02-15T00:42:07;62.70;;;31.23;;
18818;SDS011;9537;45.594;9.294;2023-02-15T00:43:08;65.73;;;30.23;;
18818;SDS011;9537;45.594;9.294;2023-02-15T00:44:10;65.53;;;31.70;;
18818;SDS011;9537;45.594;9.294;2023-02-15T00:45:11;58.63;;;29.23;;
18818;SDS011;9537;45.594;9.294;2023-02-15T00:46:14;57.27;;;30.03;;
18818;SDS011;9537;45.594;9.294;2023-02-15T00:47:15;53.20;;;28.20;;
18818;SDS011;9537;45.594;9.294;2023-02-15T00:48:18;65.50;;;29.43;;
18818;SDS011;9537;45.594;9.294;2023-02-15T00:49:19;61.90;;;31.60;;
18818;SDS011;9537;45.594;9.294;2023-02-15T00:50:22;62.70;;;32.77;;
18818;SDS011;9537;45.594;9.294;2023-02-15T00:51:23;62.00;;;29.60;;
18818;SDS011;9537;45.594;9.294;2023-02-15T00:52:25;59.33;;;30.57;;
18818;SDS011;9537;45.594;9.294;2023-02-15T00:53:26;62.63;;;30.30;;
18818;SDS011;9537;45.594;9.294;2023-02-15T00:54:29;63.73;;;30.63;;
18818;SDS011;9537;45.594;9.294;2023-02-15T00:55:30;60.60;;;29.20;;
18818;SDS011;9537;45.594;9.294;2023-02-15T00:56:32;59.13;;;30.57;;
18818;SDS011;9537;45.594;9.294;2023-02-15T00:57:33;61.50;;;28.83;;
18818;SDS011;9537;45.594;9.294;2023-02-15T00:58:35;65.67;;;31.77;;
18818;SDS011;9537;45.594;9.294;2023-02-15T00:59:36;64.83;;;30.97;;
18818;SDS011;9537;45.594;9.294;2023-02-15T01:00:39;64.10;;;29.97;;
18818;SDS011;9537;45.594;9.294;2023-02-15T01:01:41;60.97;;;31.13;;
18818;SDS011;9537;45.594;9.294;2023-02-15T01:02:43;56.37;;;28.30;;
18818;SDS011;9537;45.594;9.294;2023-02-15T01:03:46;72.27;;;31.83;;
18818;SDS011;9537;45.594;9.294;2023-02-15T01:04:48;66.27;;;31.07;;
18818;SDS011;9537;45.594;9.294;2023-02-15T01:05:49;64.10;;;30.03;;
18818;SDS011;9537;45.594;9.294;2023-02-15T01:06:51;60.47;;;29.63;;
18818;SDS011;9537;45.594;9.294;2023-02-15T01:07:52;66.17;;;30.33;;
18818;SDS011;9537;45.594;9.294;2023-02-15T01:08:54;66.70;;;31.63;;
18818;SDS011;9537;45.594;9.294;2023-02-15T01:09:55;56.63;;;28.87;;
18818;SDS011;9537;45.594;9.294;2023-02-15T01:10:56;60.80;;;29.37;;
18818;SDS011;9537;45.594;9.294;2023-02-15T01:12:03;62.50;;;29.23;;
18818;SDS011;9537;45.594;9.294;2023-02-15T01:13:06;73.50;;;31.57;;
18818;SDS011;9537;45.594;9.294;2023-02-15T01:14:07;57.77;;;30.53;;
18818;SDS011;9537;45.594;9.294;2023-02-15T01:15:09;58.20;;;30.00;;
18818;SDS011;9537;45.594;9.294;2023-02-15T01:16:10;57.73;;;30.83;;
18818;SDS011;9537;45.594;9.294;2023-02-15T01:17:12;61.40;;;30.30;;
18818;SDS011;9537;45.594;9.294;2023-02-15T01:18:13;64.87;;;31.67;;
18818;SDS011;9537;45.594;9.294;2023-02-15T01:19:18;60.37;;;30.03;;
18818;SDS011;9537;45.594;9.294;2023-02-15T01:20:19;65.70;;;31.73;;
18818;SDS011;9537;45.594;9.294;2023-02-15T01:21:23;65.20;;;32.70;;
18818;SDS011;9537;45.594;9.294;2023-02-15T01:22:25;62.30;;;30.43;;
18818;SDS011;9537;45.594;9.294;2023-02-15T01:23:27;63.00;;;30.20;;
18818;SDS011;9537;45.594;9.294;2023-02-15T01:24:28;66.63;;;31.97;;
18818;SDS011;9537;45.594;9.294;2023-02-15T01:25:30;64.03;;;31.93;;
18818;SDS011;9537;45.594;9.294;2023-02-15T01:26:31;55.10;;;28.63;;
18818;SDS011;9537;45.594;9.294;2023-02-15T01:27:33;62.40;;;30.27;;
18818;SDS011;9537;45.594;9.294;2023-02-15T01:28:34;64.90;;;30.60;;
18818;SDS011;9537;45.594;9.294;2023-02-15T01:29:36;63.80;;;30.13;;
18818;SDS011;9537;45.594;9.294;2023-02-15T01:30:37;64.67;;;31.50;;
18818;SDS011;9537;45.594;9.294;2023-02-15T01:31:39;61.77;;;31.00;;
18818;SDS011;9537;45.594;9.294;2023-02-15T01:32:41;64.93;;;31.47;;
18818;SDS011;9537;45.594;9.294;2023-02-15T01:33:43;61.10;;;29.97;;
18818;SDS011;9537;45.594;9.294;2023-02-15T01:34:46;60.97;;;29.50;;
18818;SDS011;9537;45.594;9.294;2023-02-15T01:35:48;56.10;;;29.87;;
18818;SDS011;9537;45.594;9.294;2023-02-15T01:36:49;60.80;;;31.83;;
18818;SDS011;9537;45.594;9.294;2023-02-15T01:37:51;62.67;;;29.83;;
18818;SDS011;9537;45.594;9.294;2023-02-15T01:38:52;64.43;;;30.53;;
18818;SDS011;9537;45.594;9.294;2023-02-15T01:39:54;65.90;;;31.87;;
18818;SDS011;9537;45.594;9.294;2023-02-15T01:40:55;60.30;;;31.03;;
18818;SDS011;9537;45.594;9.294;2023-02-15T01:42:20;61.03;;;29.77;;
18818;SDS011;9537;45.594;9.294;2023-02-15T01:43:24;64.57;;;30.13;;
18818;SDS011;9537;45.594;9.294;2023-02-15T01:44:51;57.30;;;28.90;;
18818;SDS011;9537;45.594;9.294;2023-02-15T01:45:53;63.50;;;29.67;;
18818;SDS011;9537;45.594;9.294;2023-02-15T01:46:55;53.27;;;26.53;;
18818;SDS011;9537;45.594;9.294;2023-02-15T01:47:58;62.43;;;29.43;;
18818;SDS011;9537;45.594;9.294;2023-02-15T01:49:05;61.43;;;29.03;;
18818;SDS011;9537;45.594;9.294;2023-02-15T01:50:14;73.03;;;39.37;;
18818;SDS011;9537;45.594;9.294;2023-02-15T01:51:19;57.40;;;28.03;;
18818;SDS011;9537;45.594;9.294;2023-02-15T01:52:24;56.83;;;28.27;;
18818;SDS011;9537;45.594;9.294;2023-02-15T01:53:28;53.43;;;26.73;;
18818;SDS011;9537;45.594;9.294;2023-02-15T01:54:34;65.23;;;31.77;;
18818;SDS011;9537;45.594;9.294;2023-02-15T01:55:42;60.60;;;28.00;;
18818;SDS011;9537;45.594;9.294;2023-02-15T01:56:47;62.07;;;30.87;;
18818;SDS011;9537;45.594;9.294;2023-02-15T01:57:50;56.57;;;26.77;;
18818;SDS011;9537;45.594;9.294;2023-02-15T01:58:51;59.70;;;29.27;;
18818;SDS011;9537;45.594;9.294;2023-02-15T01:59:58;56.77;;;27.30;;
18818;SDS011;9537;45.594;9.294;2023-02-15T02:01:02;57.33;;;29.60;;
18818;SDS011;9537;45.594;9.294;2023-02-15T02:02:09;54.87;;;27.43;;
18818;SDS011;9537;45.594;9.294;2023-02-15T02:03:14;54.70;;;26.57;;
18818;SDS011;9537;45.594;9.294;2023-02-15T02:04:17;54.47;;;27.87;;
18818;SDS011;9537;45.594;9.294;2023-02-15T02:05:25;57.33;;;28.00;;
18818;SDS011;9537;45.594;9.294;2023-02-15T02:06:27;54.80;;;28.27;;
18818;SDS011;9537;45.594;9.294;2023-02-15T02:07:29;56.63;;;28.23;;
18818;SDS011;9537;45.594;9.294;2023-02-15T02:08:35;53.23;;;27.80;;
18818;SDS011;9537;45.594;9.294;2023-02-15T02:09:36;51.77;;;29.53;;
18818;SDS011;9537;45.594;9.294;2023-02-15T02:10:38;54.97;;;28.70;;
18818;SDS011;9537;45.594;9.294;2023-02-15T02:11:39;53.13;;;27.50;;
18818;SDS011;9537;45.594;9.294;2023-02-15T02:12:43;56.93;;;28.90;;
18818;SDS011;9537;45.594;9.294;2023-02-15T02:13:46;57.77;;;29.43;;
18818;SDS011;9537;45.594;9.294;2023-02-15T02:14:48;53.33;;;27.73;;
18818;SDS011;9537;45.594;9.294;2023-02-15T02:15:52;54.93;;;28.23;;
18818;SDS011;9537;45.594;9.294;2023-02-15T02:17:02;59.30;;;28.40;;
18818;SDS011;9537;45.594;9.294;2023-02-15T02:18:16;59.07;;;27.57;;
18818;SDS011;9537;45.594;9.294;2023-02-15T02:19:45;53.27;;;26.30;;
18818;SDS011;9537;45.594;9.294;2023-02-15T02:27:50;66.93;;;33.17;;
18818;SDS011;9537;45.594;9.294;2023-02-15T02:32:24;67.10;;;36.97;;
18818;SDS011;9537;45.594;9.294;2023-02-15T02:33:50;63.60;;;35.33;;
18818;SDS011;9537;45.594;9.294;2023-02-15T02:34:59;67.77;;;36.00;;
18818;SDS011;9537;45.594;9.294;2023-02-15T02:36:08;61.97;;;36.20;;
18818;SDS011;9537;45.594;9.294;2023-02-15T02:37:19;53.57;;;25.97;;
18818;SDS011;9537;45.594;9.294;2023-02-15T02:38:27;47.67;;;23.93;;
18818;SDS011;9537;45.594;9.294;2023-02-15T02:39:37;52.70;;;25.93;;
18818;SDS011;9537;45.594;9.294;2023-02-15T02:40:50;56.13;;;26.40;;
18818;SDS011;9537;45.594;9.294;2023-02-15T02:41:58;53.63;;;26.73;;
18818;SDS011;9537;45.594;9.294;2023-02-15T02:43:05;53.10;;;26.90;;
18818;SDS011;9537;45.594;9.294;2023-02-15T02:44:13;61.27;;;27.07;;
18818;SDS011;9537;45.594;9.294;2023-02-15T02:45:20;55.93;;;27.37;;
18818;SDS011;9537;45.594;9.294;2023-02-15T02:46:28;58.83;;;30.77;;
18818;SDS011;9537;45.594;9.294;2023-02-15T02:47:34;53.33;;;26.30;;
18818;SDS011;9537;45.594;9.294;2023-02-15T02:48:41;55.50;;;27.23;;
18818;SDS011;9537;45.594;9.294;2023-02-15T02:49:44;61.37;;;30.70;;
18818;SDS011;9537;45.594;9.294;2023-02-15T02:50:46;53.07;;;24.70;;
18818;SDS011;9537;45.594;9.294;2023-02-15T02:51:47;57.03;;;25.53;;
18818;SDS011;9537;45.594;9.294;2023-02-15T02:52:59;63.87;;;34.17;;
18818;SDS011;9537;45.594;9.294;2023-02-15T02:54:00;56.17;;;25.90;;
18818;SDS011;9537;45.594;9.294;2023-02-15T02:55:08;59.80;;;27.40;;
18818;SDS011;9537;45.594;9.294;2023-02-15T02:56:15;57.50;;;26.20;;
18818;SDS011;9537;45.594;9.294;2023-02-15T02:57:25;52.77;;;24.50;;
18818;SDS011;9537;45.594;9.294;2023-02-15T02:58:29;56.07;;;27.17;;
18818;SDS011;9537;45.594;9.294;2023-02-15T02:59:37;55.27;;;25.10;;
18818;SDS011;9537;45.594;9.294;2023-02-15T03:00:44;57.90;;;26.03;;
18818;SDS011;9537;45.594;9.294;2023-02-15T03:01:50;57.27;;;26.73;;
18818;SDS011;9537;45.594;9.294;2023-02-15T03:02:56;50.80;;;24.57;;
18818;SDS011;9537;45.594;9.294;2023-02-15T03:04:05;52.23;;;25.57;;
18818;SDS011;9537;45.594;9.294;2023-02-15T03:05:13;50.83;;;25.07;;
18818;SDS011;9537;45.594;9.294;2023-02-15T03:06:17;56.37;;;24.73;;
18818;SDS011;9537;45.594;9.294;2023-02-15T03:07:26;53.30;;;25.53;;
18818;SDS011;9537;45.594;9.294;2023-02-15T03:08:30;52.40;;;24.57;;
18818;SDS011;9537;45.594;9.294;2023-02-15T03:09:37;59.63;;;26.73;;
18818;SDS011;9537;45.594;9.294;2023-02-15T03:10:42;56.80;;;26.93;;
18818;SDS011;9537;45.594;9.294;2023-02-15T03:11:44;58.47;;;26.00;;
18818;SDS011;9537;45.594;9.294;2023-02-15T03:12:45;51.53;;;26.27;;
18818;SDS011;9537;45.594;9.294;2023-02-15T03:13:48;49.60;;;26.23;;
18818;SDS011;9537;45.594;9.294;2023-02-15T03:14:50;52.93;;;24.40;;
18818;SDS011;9537;45.594;9.294;2023-02-15T03:15:54;49.53;;;25.57;;
18818;SDS011;9537;45.594;9.294;2023-02-15T03:17:15;51.23;;;23.47;;
18818;SDS011;9537;45.594;9.294;2023-02-15T03:18:20;47.77;;;24.00;;
18818;SDS011;9537;45.594;9.294;2023-02-15T03:19:27;48.17;;;23.93;;
18818;SDS011;9537;45.594;9.294;2023-02-15T03:20:33;51.53;;;24.47;;
18818;SDS011;9537;45.594;9.294;2023-02-15T03:21:38;55.00;;;24.03;;
18818;SDS011;9537;45.594;9.294;2023-02-15T03:22:44;53.07;;;24.30;;
18818;SDS011;9537;45.594;9.294;2023-02-15T03:23:50;47.97;;;24.43;;
18818;SDS011;9537;45.594;9.294;2023-02-15T03:24:56;54.30;;;23.73;;
18818;SDS011;9537;45.594;9.294;2023-02-15T03:26:00;48.93;;;23.00;;
18818;SDS011;9537;45.594;9.294;2023-02-15T03:27:05;58.23;;;25.07;;
18818;SDS011;9537;45.594;9.294;2023-02-15T03:28:11;48.40;;;23.40;;
18818;SDS011;9537;45.594;9.294;2023-02-15T03:29:16;47.67;;;24.10;;
18818;SDS011;9537;45.594;9.294;2023-02-15T03:30:20;50.50;;;23.90;;
18818;SDS011;9537;45.594;9.294;2023-02-15T03:31:24;48.17;;;22.70;;
18818;SDS011;9537;45.594;9.294;2023-02-15T03:32:29;49.73;;;23.90;;
18818;SDS011;9537;45.594;9.294;2023-02-15T03:33:33;48.27;;;23.27;;
18818;SDS011;9537;45.594;9.294;2023-02-15T03:34:36;45.17;;;22.63;;
18818;SDS011;9537;45.594;9.294;2023-02-15T03:35:40;45.37;;;23.70;;
18818;SDS011;9537;45.594;9.294;2023-02-15T03:36:50;45.10;;;22.00;;
18818;SDS011;9537;45.594;9.294;2023-02-15T03:37:58;48.00;;;22.70;;
18818;SDS011;9537;45.594;9.294;2023-02-15T03:39:03;51.63;;;27.37;;
18818;SDS011;9537;45.594;9.294;2023-02-15T03:40:11;45.40;;;22.73;;
18818;SDS011;9537;45.594;9.294;2023-02-15T03:41:39;47.07;;;22.03;;
18818;SDS011;9537;45.594;9.294;2023-02-15T03:42:46;53.73;;;22.23;;
18818;SDS011;9537;45.594;9.294;2023-02-15T03:43:52;49.10;;;23.37;;
18818;SDS011;9537;45.594;9.294;2023-02-15T03:44:58;50.40;;;22.70;;
18818;SDS011;9537;45.594;9.294;2023-02-15T03:46:05;49.17;;;22.60;;
18818;SDS011;9537;45.594;9.294;2023-02-15T03:47:11;43.03;;;21.70;;
18818;SDS011;9537;45.594;9.294;2023-02-15T03:48:16;46.90;;;21.27;;
18818;SDS011;9537;45.594;9.294;2023-02-15T03:49:20;47.13;;;22.30;;
18818;SDS011;9537;45.594;9.294;2023-02-15T03:50:26;46.90;;;23.23;;
18818;SDS011;9537;45.594;9.294;2023-02-15T03:51:50;45.37;;;24.23;;
18818;SDS011;9537;45.594;9.294;2023-02-15T03:52:56;42.40;;;23.43;;
18818;SDS011;9537;45.594;9.294;2023-02-15T03:54:00;46.70;;;22.27;;
18818;SDS011;9537;45.594;9.294;2023-02-15T03:55:04;50.50;;;28.00;;
18818;SDS011;9537;45.594;9.294;2023-02-15T03:56:06;48.37;;;23.73;;
18818;SDS011;9537;45.594;9.294;2023-02-15T03:57:09;43.50;;;21.97;;
18818;SDS011;9537;45.594;9.294;2023-02-15T03:58:30;43.33;;;19.73;;
18818;SDS011;9537;45.594;9.294;2023-02-15T03:59:49;51.10;;;23.37;;
18818;SDS011;9537;45.594;9.294;2023-02-15T04:01:10;44.33;;;21.23;;
18818;SDS011;9537;45.594;9.294;2023-02-15T04:02:36;42.80;;;21.20;;
18818;SDS011;9537;45.594;9.294;2023-02-15T04:03:42;44.07;;;21.57;;
18818;SDS011;9537;45.594;9.294;2023-02-15T04:04:47;42.80;;;21.30;;
18818;SDS011;9537;45.594;9.294;2023-02-15T04:05:49;46.03;;;23.00;;
18818;SDS011;9537;45.594;9.294;2023-02-15T04:06:52;45.00;;;22.87;;
18818;SDS011;9537;45.594;9.294;2023-02-15T04:07:54;44.50;;;21.77;;
18818;SDS011;9537;45.594;9.294;2023-02-15T04:08:55;45.93;;;22.83;;
18818;SDS011;9537;45.594;9.294;2023-02-15T04:10:14;42.03;;;21.53;;
18818;SDS011;9537;45.594;9.294;2023-02-15T04:11:34;51.97;;;27.10;;
18818;SDS011;9537;45.594;9.294;2023-02-15T04:12:36;43.83;;;21.27;;
18818;SDS011;9537;45.594;9.294;2023-02-15T04:13:37;46.40;;;21.47;;
18818;SDS011;9537;45.594;9.294;2023-02-15T04:14:39;47.27;;;20.93;;
18818;SDS011;9537;45.594;9.294;2023-02-15T04:15:59;37.77;;;18.57;;
18818;SDS011;9537;45.594;9.294;2023-02-15T04:17:06;49.40;;;21.37;;
18818;SDS011;9537;45.594;9.294;2023-02-15T04:18:07;44.77;;;22.80;;
18818;SDS011;9537;45.594;9.294;2023-02-15T04:19:09;45.70;;;22.47;;
18818;SDS011;9537;45.594;9.294;2023-02-15T04:20:29;45.67;;;21.73;;
18818;SDS011;9537;45.594;9.294;2023-02-15T04:21:49;42.17;;;19.93;;
18818;SDS011;9537;45.594;9.294;2023-02-15T04:23:09;43.17;;;19.47;;
18818;SDS011;9537;45.594;9.294;2023-02-15T04:24:28;42.63;;;19.43;;
18818;SDS011;9537;45.594;9.294;2023-02-15T04:25:48;44.87;;;20.37;;
18818;SDS011;9537;45.594;9.294;2023-02-15T04:26:50;46.07;;;20.07;;
18818;SDS011;9537;45.594;9.294;2023-02-15T04:27:53;46.53;;;24.20;;
18818;SDS011;9537;45.594;9.294;2023-02-15T04:28:56;41.83;;;20.80;;
18818;SDS011;9537;45.594;9.294;2023-02-15T04:29:57;42.13;;;20.03;;
18818;SDS011;9537;45.594;9.294;2023-02-15T04:30:59;41.17;;;20.83;;
18818;SDS011;9537;45.594;9.294;2023-02-15T04:32:00;41.67;;;21.17;;
18818;SDS011;9537;45.594;9.294;2023-02-15T04:33:02;45.00;;;22.40;;
18818;SDS011;9537;45.594;9.294;2023-02-15T04:34:03;40.80;;;21.80;;
18818;SDS011;9537;45.594;9.294;2023-02-15T04:35:05;42.43;;;20.27;;
18818;SDS011;9537;45.594;9.294;2023-02-15T04:36:07;41.90;;;21.07;;
18818;SDS011;9537;45.594;9.294;2023-02-15T04:37:09;45.03;;;21.37;;
18818;SDS011;9537;45.594;9.294;2023-02-15T04:38:12;41.80;;;20.77;;
18818;SDS011;9537;45.594;9.294;2023-02-15T04:39:14;38.53;;;19.70;;
18818;SDS011;9537;45.594;9.294;2023-02-15T04:40:17;43.47;;;20.27;;
18818;SDS011;9537;45.594;9.294;2023-02-15T04:41:18;41.80;;;20.57;;
18818;SDS011;9537;45.594;9.294;2023-02-15T04:42:20;36.20;;;19.10;;
18818;SDS011;9537;45.594;9.294;2023-02-15T04:43:21;39.10;;;19.90;;
18818;SDS011;9537;45.594;9.294;2023-02-15T04:44:23;40.73;;;20.73;;
18818;SDS011;9537;45.594;9.294;2023-02-15T04:45:24;44.37;;;21.23;;
18818;SDS011;9537;45.594;9.294;2023-02-15T04:46:27;39.27;;;19.20;;
18818;SDS011;9537;45.594;9.294;2023-02-15T04:47:28;46.00;;;20.37;;
18818;SDS011;9537;45.594;9.294;2023-02-15T04:48:30;39.90;;;20.17;;
18818;SDS011;9537;45.594;9.294;2023-02-15T04:49:31;39.60;;;20.70;;
18818;SDS011;9537;45.594;9.294;2023-02-15T04:50:33;40.77;;;20.27;;
18818;SDS011;9537;45.594;9.294;2023-02-15T04:51:34;42.63;;;20.77;;
18818;SDS011;9537;45.594;9.294;2023-02-15T04:52:36;39.03;;;19.07;;
18818;SDS011;9537;45.594;9.294;2023-02-15T04:53:38;40.73;;;20.80;;
18818;SDS011;9537;45.594;9.294;2023-02-15T04:54:40;36.67;;;18.70;;
18818;SDS011;9537;45.594;9.294;2023-02-15T04:55:41;39.67;;;20.37;;
18818;SDS011;9537;45.594;9.294;2023-02-15T04:56:43;41.00;;;19.97;;
18818;SDS011;9537;45.594;9.294;2023-02-15T04:57:44;38.23;;;18.53;;
18818;SDS011;9537;45.594;9.294;2023-02-15T04:58:47;42.63;;;20.80;;
18818;SDS011;9537;45.594;9.294;2023-02-15T04:59:48;40.63;;;20.10;;
18818;SDS011;9537;45.594;9.294;2023-02-15T05:00:51;39.03;;;19.47;;
18818;SDS011;9537;45.594;9.294;2023-02-15T05:01:56;38.00;;;19.03;;
18818;SDS011;9537;45.594;9.294;2023-02-15T05:02:58;39.50;;;18.90;;
18818;SDS011;9537;45.594;9.294;2023-02-15T05:03:59;44.10;;;18.97;;
18818;SDS011;9537;45.594;9.294;2023-02-15T05:05:01;39.17;;;19.40;;
18818;SDS011;9537;45.594;9.294;2023-02-15T05:06:02;40.70;;;19.10;;
18818;SDS011;9537;45.594;9.294;2023-02-15T05:07:05;42.30;;;19.33;;
18818;SDS011;9537;45.594;9.294;2023-02-15T05:08:06;36.87;;;18.97;;
18818;SDS011;9537;45.594;9.294;2023-02-15T05:09:09;39.73;;;19.57;;
18818;SDS011;9537;45.594;9.294;2023-02-15T05:10:11;37.43;;;17.63;;
18818;SDS011;9537;45.594;9.294;2023-02-15T05:11:12;37.73;;;19.43;;
18818;SDS011;9537;45.594;9.294;2023-02-15T05:12:13;37.23;;;18.47;;
18818;SDS011;9537;45.594;9.294;2023-02-15T05:13:16;41.47;;;18.87;;
18818;SDS011;9537;45.594;9.294;2023-02-15T05:14:17;37.10;;;18.90;;
18818;SDS011;9537;45.594;9.294;2023-02-15T05:15:19;37.40;;;18.03;;
18818;SDS011;9537;45.594;9.294;2023-02-15T05:16:20;38.23;;;17.97;;
18818;SDS011;9537;45.594;9.294;2023-02-15T05:17:22;34.03;;;18.33;;
18818;SDS011;9537;45.594;9.294;2023-02-15T05:18:23;41.93;;;18.00;;
18818;SDS011;9537;45.594;9.294;2023-02-15T05:19:25;38.80;;;18.37;;
18818;SDS011;9537;45.594;9.294;2023-02-15T05:20:26;34.53;;;16.83;;
18818;SDS011;9537;45.594;9.294;2023-02-15T05:21:29;32.33;;;17.10;;
18818;SDS011;9537;45.594;9.294;2023-02-15T05:22:30;35.97;;;17.53;;
18818;SDS011;9537;45.594;9.294;2023-02-15T05:23:32;33.90;;;17.10;;
18818;SDS011;9537;45.594;9.294;2023-02-15T05:24:34;35.83;;;16.40;;
18818;SDS011;9537;45.594;9.294;2023-02-15T05:25:53;29.23;;;15.67;;
18818;SDS011;9537;45.594;9.294;2023-02-15T05:27:13;39.43;;;18.50;;
18818;SDS011;9537;45.594;9.294;2023-02-15T05:28:32;35.70;;;18.40;;
18818;SDS011;9537;45.594;9.294;2023-02-15T05:29:34;34.43;;;16.80;;
18818;SDS011;9537;45.594;9.294;2023-02-15T05:30:36;37.27;;;18.57;;
18818;SDS011;9537;45.594;9.294;2023-02-15T05:31:40;38.03;;;17.73;;
18818;SDS011;9537;45.594;9.294;2023-02-15T05:32:41;35.30;;;18.67;;
18818;SDS011;9537;45.594;9.294;2023-02-15T05:33:43;31.37;;;15.57;;
18818;SDS011;9537;45.594;9.294;2023-02-15T05:34:45;29.17;;;14.77;;
18818;SDS011;9537;45.594;9.294;2023-02-15T05:35:47;34.07;;;18.03;;
18818;SDS011;9537;45.594;9.294;2023-02-15T05:36:48;33.93;;;16.83;;
18818;SDS011;9537;45.594;9.294;2023-02-15T05:37:50;34.53;;;17.07;;
18818;SDS011;9537;45.594;9.294;2023-02-15T05:38:50;33.93;;;16.77;;
18818;SDS011;9537;45.594;9.294;2023-02-15T05:39:54;32.93;;;16.47;;
18818;SDS011;9537;45.594;9.294;2023-02-15T05:40:55;35.47;;;17.27;;
18818;SDS011;9537;45.594;9.294;2023-02-15T05:41:58;35.53;;;18.70;;
18818;SDS011;9537;45.594;9.294;2023-02-15T05:42:59;34.60;;;16.73;;
18818;SDS011;9537;45.594;9.294;2023-02-15T05:44:01;31.67;;;17.30;;
18818;SDS011;9537;45.594;9.294;2023-02-15T05:45:02;36.13;;;17.73;;
18818;SDS011;9537;45.594;9.294;2023-02-15T05:46:06;34.90;;;17.60;;
18818;SDS011;9537;45.594;9.294;2023-02-15T05:47:07;37.77;;;16.87;;
18818;SDS011;9537;45.594;9.294;2023-02-15T05:48:09;33.07;;;17.27;;
18818;SDS011;9537;45.594;9.294;2023-02-15T05:49:10;33.37;;;17.10;;
18818;SDS011;9537;45.594;9.294;2023-02-15T05:50:12;30.13;;;17.17;;
18818;SDS011;9537;45.594;9.294;2023-02-15T05:51:13;33.00;;;15.73;;
18818;SDS011;9537;45.594;9.294;2023-02-15T05:52:16;33.77;;;15.97;;
18818;SDS011;9537;45.594;9.294;2023-02-15T05:53:17;31.63;;;15.97;;
18818;SDS011;9537;45.594;9.294;2023-02-15T05:54:19;35.57;;;17.33;;
18818;SDS011;9537;45.594;9.294;2023-02-15T05:55:21;26.70;;;15.37;;
18818;SDS011;9537;45.594;9.294;2023-02-15T05:56:23;33.50;;;16.70;;
18818;SDS011;9537;45.594;9.294;2023-02-15T05:57:25;36.10;;;16.20;;
18818;SDS011;9537;45.594;9.294;2023-02-15T05:58:27;36.53;;;17.13;;
18818;SDS011;9537;45.594;9.294;2023-02-15T05:59:30;34.67;;;17.20;;
18818;SDS011;9537;45.594;9.294;2023-02-15T06:00:32;36.00;;;16.47;;
18818;SDS011;9537;45.594;9.294;2023-02-15T06:01:33;30.77;;;16.33;;
18818;SDS011;9537;45.594;9.294;2023-02-15T06:02:36;34.50;;;17.33;;
18818;SDS011;9537;45.594;9.294;2023-02-15T06:03:37;31.80;;;15.33;;
18818;SDS011;9537;45.594;9.294;2023-02-15T06:04:39;29.50;;;15.60;;
18818;SDS011;9537;45.594;9.294;2023-02-15T06:05:41;30.13;;;14.83;;
18818;SDS011;9537;45.594;9.294;2023-02-15T06:06:43;35.17;;;17.00;;
18818;SDS011;9537;45.594;9.294;2023-02-15T06:07:44;38.47;;;18.63;;
18818;SDS011;9537;45.594;9.294;2023-02-15T06:08:46;29.27;;;15.70;;
18818;SDS011;9537;45.594;9.294;2023-02-15T06:09:47;31.57;;;15.57;;
18818;SDS011;9537;45.594;9.294;2023-02-15T06:10:51;33.07;;;16.33;;
18818;SDS011;9537;45.594;9.294;2023-02-15T06:11:52;33.13;;;16.17;;
18818;SDS011;9537;45.594;9.294;2023-02-15T06:12:54;31.63;;;16.07;;
18818;SDS011;9537;45.594;9.294;2023-02-15T06:13:55;33.77;;;15.53;;
18818;SDS011;9537;45.594;9.294;2023-02-15T06:14:56;32.77;;;15.57;;
18818;SDS011;9537;45.594;9.294;2023-02-15T06:15:58;30.67;;;16.33;;
18818;SDS011;9537;45.594;9.294;2023-02-15T06:16:59;29.67;;;13.97;;
18818;SDS011;9537;45.594;9.294;2023-02-15T06:18:01;34.17;;;16.70;;
18818;SDS011;9537;45.594;9.294;2023-02-15T06:19:03;25.40;;;14.93;;
18818;SDS011;9537;45.594;9.294;2023-02-15T06:20:06;30.53;;;17.10;;
18818;SDS011;9537;45.594;9.294;2023-02-15T06:21:08;32.37;;;15.80;;
18818;SDS011;9537;45.594;9.294;2023-02-15T06:22:10;30.03;;;15.63;;
18818;SDS011;9537;45.594;9.294;2023-02-15T06:23:14;32.30;;;16.77;;
18818;SDS011;9537;45.594;9.294;2023-02-15T06:24:16;28.77;;;14.57;;
18818;SDS011;9537;45.594;9.294;2023-02-15T06:25:18;32.97;;;14.87;;
18818;SDS011;9537;45.594;9.294;2023-02-15T06:26:20;28.93;;;14.60;;
18818;SDS011;9537;45.594;9.294;2023-02-15T06:27:22;26.90;;;14.43;;
18818;SDS011;9537;45.594;9.294;2023-02-15T06:28:24;30.27;;;14.97;;
18818;SDS011;9537;45.594;9.294;2023-02-15T06:29:25;35.87;;;15.97;;
18818;SDS011;9537;45.594;9.294;2023-02-15T06:30:27;27.17;;;14.47;;
18818;SDS011;9537;45.594;9.294;2023-02-15T06:31:29;32.60;;;17.03;;